Time;durP1;ratioP1;P1;durP2;ratioP2;P2;SDS_P1;SDS_P2;PMS_P1;PMS_P2;Temp;Humidity;BMP_temperature;BMP_pressure;BME280_temperature;BME280_humidity;BME280_pressure;Samples;Min_cycle;Max_cycle;Signal;HPM_P1;HPM_P2
2021/09/05 00:01:55;;;;;;;0.55;0.55;;;;;;;6.84;80.13;99549.97;5109911;28;20393;-67
2021/09/05 00:04:21;;;;;;;0.63;0.63;;;;;;;6.77;80.12;99552.00;5109627;28;20043;-67
2021/09/05 00:06:47;;;;;;;0.40;0.40;;;;;;;6.75;80.05;99560.75;5109569;28;20051;-67
2021/09/05 00:09:13;;;;;;;0.52;0.52;;;;;;;6.73;80.43;99554.81;5109422;28;20032;-68
2021/09/05 00:11:39;;;;;;;0.40;0.40;;;;;;;6.76;79.79;99563.31;5109642;28;20432;-68
2021/09/05 00:14:05;;;;;;;0.98;0.98;;;;;;;6.76;80.52;99565.06;5109415;28;20046;-67
2021/09/05 00:16:31;;;;;;;1.27;1.27;;;;;;;6.78;80.11;99558.03;5109582;28;20046;-68
2021/09/05 00:18:58;;;;;;;1.20;1.20;;;;;;;6.81;79.56;99570.88;5110442;28;20044;-67
2021/09/05 00:21:24;;;;;;;0.68;0.68;;;;;;;6.81;79.59;99569.13;5113712;28;20040;-67
2021/09/05 00:23:49;;;;;;;0.65;0.65;;;;;;;6.84;79.31;99562.94;5113996;28;20039;-68
2021/09/05 00:26:15;;;;;;;0.82;0.82;;;;;;;6.86;78.90;99560.28;5113509;28;20051;-67
2021/09/05 00:28:42;;;;;;;0.63;0.63;;;;;;;6.87;78.93;99572.38;5113774;28;20086;-66
2021/09/05 00:31:08;;;;;;;0.70;0.70;;;;;;;6.90;78.79;99578.28;5113327;28;20047;-67
2021/09/05 00:33:34;;;;;;;0.85;0.85;;;;;;;6.92;78.89;99571.25;5095634;28;20036;-67
2021/09/05 00:36:01;;;;;;;0.60;0.60;;;;;;;6.93;78.40;99572.09;5095333;28;20118;-68
2021/09/05 00:38:27;;;;;;;1.15;1.15;;;;;;;6.93;78.46;99577.28;5113364;28;20043;-67
2021/09/05 00:40:53;;;;;;;0.57;0.57;;;;;;;7.00;77.05;99584.69;5112297;28;20046;-68
2021/09/05 00:43:19;;;;;;;0.82;0.82;;;;;;;7.00;77.30;99584.69;5113218;28;20050;-67
2021/09/05 00:45:45;;;;;;;0.63;0.63;;;;;;;6.96;77.62;99588.38;5091496;28;20424;-67
2021/09/05 00:48:11;;;;;;;1.08;1.08;;;;;;;6.98;77.21;99576.16;5058046;28;20501;-66
2021/09/05 00:50:37;;;;;;;1.40;1.40;;;;;;;7.00;76.91;99589.91;5093103;28;20089;-67
2021/09/05 00:53:04;;;;;;;0.77;0.77;;;;;;;7.01;76.40;99589.00;5066151;28;20130;-67
2021/09/05 00:55:35;;;;;;;0.63;0.63;;;;;;;6.97;75.70;99594.41;5095105;28;20035;-67
2021/09/05 00:58:06;;;;;;;0.52;0.52;;;;;;;7.01;75.93;99583.81;5113231;28;20401;-67
2021/09/05 01:00:34;;;;;;;0.80;0.80;;;;;;;6.93;77.55;99585.91;5095083;28;20043;-67
2021/09/05 01:03:05;;;;;;;0.70;0.70;;;;;;;6.88;77.63;99587.84;5094783;28;20492;-68
2021/09/05 01:05:33;;;;;;;0.40;0.40;;;;;;;6.91;77.92;99592.91;5094968;28;20043;-66
2021/09/05 01:07:59;;;;;;;0.75;0.75;;;;;;;6.90;77.15;99598.19;5094766;28;20419;-67
2021/09/05 01:10:26;;;;;;;1.05;1.05;;;;;;;6.90;77.37;99609.41;5094668;28;20089;-68
2021/09/05 01:12:52;;;;;;;1.05;1.05;;;;;;;6.92;76.91;99601.53;5077952;28;20035;-67
2021/09/05 01:15:18;;;;;;;0.45;0.45;;;;;;;6.94;76.68;99602.28;5112572;28;20042;-68
2021/09/05 01:17:45;;;;;;;1.02;1.02;;;;;;;6.96;76.40;99605.69;5094905;28;20032;-68
2021/09/05 01:20:46;;;;;;;0.55;0.55;;;;;;;6.90;76.54;99608.56;5094689;28;20062;-67
2021/09/05 01:23:40;;;;;;;1.63;1.52;;;;;;;6.77;77.53;99608.25;5112225;28;20047;-67
2021/09/05 01:26:46;;;;;;;0.60;0.60;;;;;;;6.68;77.56;99600.84;5049331;28;20037;-67
2021/09/05 01:29:32;;;;;;;0.30;0.30;;;;;;;6.72;77.74;99617.97;5049205;28;20052;-68
2021/09/05 01:32:17;;;;;;;0.80;0.80;;;;;;;6.79;77.36;99616.81;5095118;28;20424;-66
2021/09/05 01:35:03;;;;;;;0.95;0.95;;;;;;;6.78;77.70;99625.47;5112606;28;20089;-67
2021/09/05 01:37:48;;;;;;;0.80;0.80;;;;;;;6.71;77.80;99624.06;5112318;28;20043;-66
2021/09/05 01:40:20;;;;;;;0.45;0.45;;;;;;;6.77;77.30;99631.59;5112239;28;20084;-66
2021/09/05 01:43:06;;;;;;;0.70;0.70;;;;;;;6.74;77.49;99626.53;5093990;28;20137;-66
2021/09/05 01:45:51;;;;;;;0.70;0.70;;;;;;;6.73;77.41;99640.41;5112069;28;20044;-66
2021/09/05 01:48:52;;;;;;;1.27;1.27;;;;;;;6.70;77.45;99638.81;5111974;28;20051;-66
2021/09/05 01:51:53;;;;;;;15.48;1.55;;;;;;;6.72;77.61;99647.34;4992798;28;20641;-67
2021/09/05 01:54:50;;;;;;;0.40;0.40;;;;;;;6.72;77.52;99651.69;5110942;28;20641;-67
2021/09/05 01:57:36;;;;;;;0.60;0.60;;;;;;;6.70;77.47;99648.31;5111617;28;20169;-66
2021/09/05 02:00:22;;;;;;;0.40;0.40;;;;;;;6.72;76.85;99646.50;5111400;28;20047;-66
2021/09/05 02:02:57;;;;;;;0.50;0.50;;;;;;;6.71;76.48;99658.63;5093634;28;20424;-67
2021/09/05 02:05:58;;;;;;;0.55;0.55;;;;;;;6.67;76.42;99653.66;5097164;28;20043;-67
2021/09/05 02:08:24;;;;;;;0.52;0.52;;;;;;;6.67;76.72;99662.28;5111541;28;20416;-67
2021/09/05 02:11:08;;;;;;;0.40;0.40;;;;;;;6.64;76.35;99666.75;5111785;28;20058;-67
2021/09/05 02:13:48;;;;;;;0.63;0.63;;;;;;;6.63;76.47;99683.22;5093530;28;20642;-67
2021/09/05 02:16:33;;;;;;;0.55;0.55;;;;;;;6.65;76.72;99677.03;5093055;28;20126;-68
2021/09/05 02:19:13;;;;;;;0.55;0.55;;;;;;;6.64;76.70;99677.13;5093242;28;20104;-67
2021/09/05 02:21:58;;;;;;;0.70;0.70;;;;;;;6.59;76.44;99679.03;5111511;28;20044;-67
2021/09/05 02:24:43;;;;;;;0.40;0.40;;;;;;;6.63;76.57;99688.41;5111636;28;20043;-68
2021/09/05 02:27:38;;;;;;;0.68;0.68;;;;;;;6.62;76.54;99695.31;5090945;28;20051;-67
2021/09/05 14:55:10;;;;;;;1.08;1.08;;;;;;;8.98;66.47;100245.88;5069517;28;20053;-70
2021/09/05 14:57:36;;;;;;;1.08;0.95;;;;;;;9.04;65.63;100258.63;5067958;28;20174;-70
2021/09/05 15:00:04;;;;;;;0.93;0.85;;;;;;;9.02;65.59;100252.66;5069272;28;20628;-71
2021/09/05 15:02:38;;;;;;;0.90;0.90;;;;;;;9.04;63.87;100263.84;5050833;28;20044;-70
2021/09/05 15:13:03;;;;;;;0.70;0.70;;;;;;;9.06;66.07;100262.03;5067904;28;20123;-70
2021/09/05 15:15:31;;;;;;;0.40;0.40;;;;;;;8.95;65.79;100259.03;5068637;28;20052;-70
2021/09/05 15:17:58;;;;;;;0.50;0.50;;;;;;;8.96;65.68;100265.94;5068638;28;20048;-70
2021/09/05 15:20:25;;;;;;;0.82;0.82;;;;;;;8.94;65.90;100266.88;5056871;28;20049;-73
2021/09/05 15:22:57;;;;;;;0.75;0.75;;;;;;;8.89;65.44;100261.91;5049074;28;20045;-72
2021/09/05 15:25:23;;;;;;;0.73;0.73;;;;;;;8.80;66.28;100255.28;5048779;28;20040;-70
2021/09/05 15:27:57;;;;;;;0.82;0.82;;;;;;;8.84;66.21;100279.44;5031360;28;20052;-71
2021/09/05 15:52:08;;;;;;;0.93;0.90;;;;;;;8.32;69.41;100271.13;5031829;28;20561;-71
2021/09/05 15:54:35;;;;;;;2.08;1.98;;;;;;;8.27;69.83;100290.41;5047064;28;20517;-72
2021/09/05 15:57:05;;;;;;;1.80;1.13;;;;;;;8.16;70.94;100277.78;5048576;28;20049;-72
2021/09/05 16:17:56;;;;;;;13.27;2.55;;;;;;;7.77;73.24;100306.13;5048029;28;20052;-72
2021/09/05 16:20:23;;;;;;;1.35;1.35;;;;;;;7.70;74.15;100320.22;5049105;28;20056;-72
2021/09/05 16:22:49;;;;;;;2.08;1.98;;;;;;;7.56;74.85;100326.84;5048422;28;20422;-72
2021/09/05 16:25:15;;;;;;;1.98;1.88;;;;;;;7.47;74.99;100321.94;5048619;28;20053;-72
2021/09/05 16:27:45;;;;;;;1.40;1.40;;;;;;;7.49;74.93;100335.75;5048140;28;20483;-73
2021/09/05 16:35:34;;;;;;;1.90;1.80;;;;;;;7.26;75.83;100329.56;5066814;28;20731;-73
2021/09/05 16:40:31;;;;;;;1.65;1.65;;;;;;;7.07;76.43;100320.69;5030133;28;20522;-72
2021/09/05 16:43:00;;;;;;;2.40;2.30;;;;;;;7.25;76.29;100343.47;5080096;28;20501;-71
2021/09/05 16:45:28;;;;;;;1.13;1.13;;;;;;;7.21;76.69;100346.19;5087785;28;20479;-73
2021/09/05 16:47:54;;;;;;;3.08;2.88;;;;;;;7.14;76.87;100344.69;5085793;28;20600;-72
2021/09/05 16:50:20;;;;;;;8.07;1.73;;;;;;;6.99;77.21;100345.22;5086942;28;20651;-70
2021/09/05 16:52:47;;;;;;;2.25;2.15;;;;;;;6.97;77.76;100353.03;5086888;28;20040;-70
2021/09/05 16:55:13;;;;;;;1.13;1.13;;;;;;;6.88;78.07;100353.31;5086910;28;20194;-71
2021/09/05 16:57:40;;;;;;;2.17;2.13;;;;;;;6.89;78.23;100351.59;5088062;28;20047;-70
2021/09/05 17:00:09;;;;;;;1.38;1.38;;;;;;;6.87;79.09;100354.25;5087945;28;20135;-72
2021/09/05 17:02:35;;;;;;;2.25;2.15;;;;;;;6.83;79.65;100363.03;5072900;28;20051;-72
2021/09/05 17:05:03;;;;;;;2.35;2.25;;;;;;;6.71;80.26;100350.41;5073515;28;20047;-71
2021/09/05 17:07:30;;;;;;;2.63;2.53;;;;;;;6.64;81.30;100359.31;5091426;28;20056;-71
2021/09/05 17:09:56;;;;;;;1.55;1.48;;;;;;;6.66;81.44;100367.88;5090406;28;20591;-72
2021/09/05 17:12:22;;;;;;;2.03;1.92;;;;;;;6.66;81.36;100365.28;5091643;28;20086;-71
2021/09/05 17:14:51;;;;;;;11.55;2.05;;;;;;;6.71;80.66;100372.00;5091727;28;20048;-70
2021/09/05 17:17:17;;;;;;;1.13;1.13;;;;;;;6.79;79.31;100377.84;5091223;28;20055;-71
2021/09/05 17:19:45;;;;;;;2.45;2.35;;;;;;;6.77;79.93;100373.59;5085034;28;20044;-71
2021/09/05 17:22:12;;;;;;;3.15;2.95;;;;;;;6.63;80.75;100375.75;5070242;28;20056;-72
2021/09/05 17:24:39;;;;;;;8.55;2.80;;;;;;;6.57;80.99;100376.78;5069242;28;20064;-70
2021/09/05 17:27:06;;;;;;;3.05;2.85;;;;;;;6.50;81.16;100388.25;5071261;28;20048;-71
2021/09/05 17:29:37;;;;;;;1.98;1.88;;;;;;;6.46;81.10;100380.59;5070781;28;20539;-70
2021/09/05 17:32:06;;;;;;;2.05;1.95;;;;;;;6.48;81.26;100390.00;5053938;28;20048;-71
2021/09/05 17:34:33;;;;;;;2.15;1.95;;;;;;;6.53;80.99;100388.16;5089283;28;20792;-70
2021/09/05 17:37:01;;;;;;;3.70;2.65;;;;;;;6.49;81.15;100390.88;5089472;28;20140;-71
2021/09/05 17:39:30;;;;;;;2.25;2.15;;;;;;;6.42;81.29;100378.97;5069993;28;20044;-72
2021/09/05 17:41:56;;;;;;;1.75;1.75;;;;;;;6.39;81.40;100389.44;5068204;28;20053;-73
2021/09/05 17:44:47;;;;;;;2.22;2.13;;;;;;;6.35;81.47;100388.66;5053193;28;20044;-73
2021/09/05 17:47:14;;;;;;;8.00;7.43;;;;;;;6.36;81.54;100392.97;5070347;28;20076;-73
2021/09/05 17:49:42;;;;;;;3.40;1.92;;;;;;;6.36;81.81;100395.56;5074923;28;20055;-70
2021/09/05 17:52:09;;;;;;;8.10;6.45;;;;;;;6.28;82.40;100393.19;5091166;28;20044;-71
2021/09/05 17:54:38;;;;;;;3.80;3.60;;;;;;;6.21;82.59;100396.88;5072668;28;20052;-72
2021/09/05 17:57:05;;;;;;;1.40;1.40;;;;;;;6.20;83.01;100400.34;5072707;28;20437;-72
2021/09/05 17:59:33;;;;;;;1.85;1.75;;;;;;;6.11;83.04;100390.25;5072750;28;20139;-71
2021/09/05 18:01:59;;;;;;;1.65;1.60;;;;;;;6.04;83.31;100396.50;5092116;28;20058;-72
2021/09/05 18:04:30;;;;;;;1.30;1.30;;;;;;;6.03;83.98;100407.75;5074093;28;20040;-73
2021/09/05 18:06:56;;;;;;;1.48;1.45;;;;;;;5.94;83.84;100397.63;5084064;28;20048;-71
2021/09/05 18:09:24;;;;;;;2.33;2.13;;;;;;;6.03;83.71;100401.69;5039047;28;20056;-75
2021/09/05 18:11:54;;;;;;;6.53;2.88;;;;;;;6.00;84.04;100402.63;5079268;28;20052;-74
2021/09/05 18:14:20;;;;;;;2.15;2.15;;;;;;;6.03;83.69;100405.16;5072360;28;20117;-73
2021/09/05 18:16:45;;;;;;;6.63;1.90;;;;;;;5.98;83.67;100406.19;5052627;28;20048;-72
2021/09/05 18:19:16;;;;;;;;;;;;;;;5.97;83.75;100407.91;5078913;28;20047;-71
2021/09/05 18:21:46;;;;;;;1.55;1.45;;;;;;;5.92;84.13;100404.59;5072912;28;19927;-71
2021/09/05 18:24:16;;;;;;;1.33;1.33;;;;;;;5.92;83.93;100407.19;5080031;28;20139;-72
2021/09/05 18:26:55;;;;;;;;;;;;;;;;;;;;;
2021/09/05 18:29:28;;;;;;;2.10;2.00;;;;;;;6.06;83.89;100409.38;5050586;28;20131;-71
2021/09/05 18:31:58;;;;;;;2.63;2.33;;;;;;;6.04;83.55;100409.44;5086232;28;20052;-72
2021/09/05 18:34:34;;;;;;;2.38;2.25;;;;;;;6.05;83.47;100416.31;5072168;28;20489;-73
2021/09/05 18:37:01;;;;;;;2.55;2.00;;;;;;;6.12;83.90;100412.66;5071421;28;20186;-70
2021/09/05 18:39:28;;;;;;;2.78;2.58;;;;;;;6.26;83.46;100402.75;5071876;28;20036;-72
2021/09/05 18:41:56;;;;;;;1.70;1.60;;;;;;;6.29;83.29;100414.78;5089840;28;20499;-76
2021/09/05 18:44:27;;;;;;;1.80;1.70;;;;;;;6.32;83.25;100416.44;5086349;28;20044;-76
2021/09/05 18:47:00;;;;;;;3.15;2.22;;;;;;;6.36;82.65;100413.72;5074186;28;20438;-77
2021/09/05 18:49:26;;;;;;;2.33;2.22;;;;;;;6.40;82.75;100419.66;5089801;28;20189;-74
2021/09/05 18:51:55;;;;;;;1.52;1.52;;;;;;;6.44;82.74;100421.28;5090923;28;20048;-75
2021/09/05 18:54:21;;;;;;;2.55;2.35;;;;;;;6.45;82.15;100415.19;5090804;28;20048;-76
2021/09/05 18:56:48;;;;;;;3.30;3.03;;;;;;;6.45;82.55;100415.19;5090479;28;20055;-75
2021/09/05 18:59:15;;;;;;;2.17;2.17;;;;;;;6.49;82.46;100425.44;5089188;28;20090;-75
2021/09/05 19:01:41;;;;;;;1.23;1.23;;;;;;;6.58;82.52;100416.53;5072314;28;20056;-76
2021/09/05 19:04:12;;;;;;;3.00;1.98;;;;;;;6.63;82.17;100423.31;5054476;28;20075;-75
2021/09/05 19:06:39;;;;;;;8.75;2.08;;;;;;;6.67;82.30;100431.84;5071300;28;20048;-77
2021/09/05 19:09:06;;;;;;;2.47;2.28;;;;;;;6.73;81.67;100426.47;5071198;28;20588;-76
2021/09/05 19:11:34;;;;;;;1.85;1.83;;;;;;;6.76;81.95;100426.38;5069036;28;20048;-75
2021/09/05 19:14:02;;;;;;;2.65;1.95;;;;;;;6.77;81.71;100433.28;5069244;28;20057;-74
2021/09/05 19:16:29;;;;;;;1.85;1.75;;;;;;;6.78;81.34;100435.81;5067875;28;20044;-76
2021/09/05 19:18:55;;;;;;;2.33;2.13;;;;;;;6.83;81.11;100433.09;5067445;28;20055;-75
2021/09/05 19:21:23;;;;;;;1.80;1.70;;;;;;;6.91;81.44;100431.09;5049478;28;20048;-70
2021/09/05 19:23:51;;;;;;;1.35;1.35;;;;;;;6.96;81.08;100428.38;5067579;28;20044;-71
2021/09/05 19:26:19;;;;;;;1.42;1.40;;;;;;;7.03;80.97;100430.72;5050350;28;20471;-70
2021/09/05 19:28:47;;;;;;;2.30;2.20;;;;;;;7.04;80.81;100429.81;5068892;28;20063;-72
2021/09/05 19:31:14;;;;;;;2.22;2.13;;;;;;;7.03;80.44;100427.28;5068907;28;20052;-75
2021/09/05 19:33:40;;;;;;;1.58;1.55;;;;;;;7.08;80.79;100441.81;5067444;28;20087;-72
2021/09/05 19:36:07;;;;;;;3.38;3.17;;;;;;;7.13;80.55;100437.31;5068827;28;20072;-72
2021/09/05 19:38:33;;;;;;;2.90;2.67;;;;;;;7.16;80.92;100445.03;5068414;28;20493;-76
2021/09/05 19:41:01;;;;;;;2.03;1.92;;;;;;;7.17;80.20;100441.50;5068854;28;20044;-72
2021/09/05 19:43:27;;;;;;;2.25;2.17;;;;;;;7.18;80.19;100437.16;5050444;28;20113;-71
2021/09/05 19:45:56;;;;;;;1.48;1.48;;;;;;;7.14;79.94;100433.81;5068525;28;20053;-71
2021/09/05 19:48:22;;;;;;;1.77;1.70;;;;;;;7.20;80.36;100438.81;5050390;28;20056;-72
2021/09/05 19:50:49;;;;;;;1.90;1.80;;;;;;;7.22;79.94;100442.22;5050829;28;20076;-72
2021/09/05 19:53:15;;;;;;;3.35;3.15;;;;;;;7.23;79.58;100438.72;5068533;28;20056;-72
2021/09/05 19:55:41;;;;;;;4.13;3.83;;;;;;;7.29;79.63;100448.94;5050218;28;20041;-72
2021/09/05 19:58:11;;;;;;;2.75;2.65;;;;;;;7.28;79.69;100447.22;5068517;28;20425;-71
2021/09/05 20:00:38;;;;;;;2.08;2.00;;;;;;;7.24;80.30;100445.63;5068053;28;20110;-72
2021/09/05 20:03:05;;;;;;;6.28;3.40;;;;;;;7.25;80.20;100441.28;5067529;28;20514;-69
2021/09/05 20:05:33;;;;;;;6.40;2.78;;;;;;;7.24;80.30;100445.63;5067870;28;20044;-71
2021/09/05 20:08:01;;;;;;;2.47;2.28;;;;;;;7.20;80.45;100441.41;5050454;28;20131;-70
2021/09/05 20:10:28;;;;;;;4.35;3.90;;;;;;;7.18;81.18;100445.81;5050436;28;20052;-70
2021/09/05 20:12:54;;;;;;;12.80;2.72;;;;;;;7.12;80.54;100438.22;5034141;28;20049;-70
2021/09/05 20:15:20;;;;;;;2.28;2.13;;;;;;;7.17;80.76;100454.50;5050068;28;20052;-71
2021/09/05 20:17:46;;;;;;;4.68;2.70;;;;;;;7.14;81.39;100443.34;5068160;28;20091;-70
2021/09/05 20:20:15;;;;;;;1.88;1.77;;;;;;;7.16;81.44;100447.63;5068286;28;20605;-71
2021/09/05 20:22:41;;;;;;;1.83;1.73;;;;;;;7.14;81.79;100451.13;5067913;28;20051;-71
2021/09/05 20:25:08;;;;;;;3.28;3.08;;;;;;;7.10;81.82;100446.97;5068434;28;20040;-72
2021/09/05 20:27:35;;;;;;;6.40;2.25;;;;;;;7.13;82.22;100445.09;5067299;28;20048;-72
2021/09/05 20:30:04;;;;;;;1.45;1.45;;;;;;;7.16;81.70;100445.03;5068292;28;20185;-71
2021/09/05 20:32:30;;;;;;;2.53;2.42;;;;;;;7.20;81.00;100454.41;5067922;28;20055;-71
2021/09/05 20:34:59;;;;;;;1.33;1.33;;;;;;;7.21;81.47;100450.91;5079917;28;20044;-70
2021/09/05 20:37:25;;;;;;;1.05;1.05;;;;;;;7.15;82.40;100445.91;5091364;28;20062;-70
2021/09/05 20:39:51;;;;;;;10.43;1.98;;;;;;;7.13;82.39;100449.47;5092342;28;20134;-70
2021/09/05 20:42:17;;;;;;;4.78;1.83;;;;;;;7.06;82.75;100441.00;5091040;28;20044;-71
2021/09/05 20:44:43;;;;;;;2.80;2.50;;;;;;;7.09;82.01;100435.72;5073899;28;20075;-72
2021/09/05 20:47:09;;;;;;;1.27;1.17;;;;;;;7.16;82.43;100442.44;5057806;28;20090;-70
2021/09/05 20:49:36;;;;;;;1.17;1.17;;;;;;;7.13;82.27;100446.88;5088656;28;20074;-68
2021/09/05 20:52:04;;;;;;;2.05;1.98;;;;;;;7.14;82.05;100446.81;5091728;28;20127;-69
2021/09/05 20:54:30;;;;;;;1.35;1.33;;;;;;;7.10;82.30;100445.19;5073953;28;20489;-69
2021/09/05 20:56:57;;;;;;;2.70;2.55;;;;;;;7.06;82.05;100441.00;5092171;28;20471;-69
2021/09/05 20:59:24;;;;;;;3.13;2.92;;;;;;;7.08;82.00;100444.41;5092115;28;20047;-69
2021/09/05 21:01:54;;;;;;;1.67;1.58;;;;;;;7.03;81.74;100438.53;5076842;28;20077;-69
2021/09/05 21:04:20;;;;;;;1.92;1.85;;;;;;;6.99;81.38;100430.88;5054258;28;20091;-71
2021/09/05 21:06:46;;;;;;;1.70;1.70;;;;;;;7.05;81.20;100449.69;5038589;28;20587;-67
2021/09/05 21:09:12;;;;;;;1.77;1.73;;;;;;;7.04;81.73;100452.31;5092363;28;20055;-68
2021/09/05 21:11:38;;;;;;;1.98;1.88;;;;;;;7.00;81.90;100445.56;5073948;28;20070;-68
2021/09/05 21:14:04;;;;;;;1.50;1.50;;;;;;;6.97;82.04;100449.06;5092349;28;20059;-68
2021/09/05 21:16:30;;;;;;;1.45;1.45;;;;;;;6.90;82.03;100442.38;5073198;28;20048;-67
2021/09/05 21:18:56;;;;;;;1.60;1.60;;;;;;;6.87;81.84;100439.88;5092374;28;20154;-68
2021/09/05 21:21:22;;;;;;;3.05;2.28;;;;;;;6.90;81.91;100444.97;5073105;28;20101;-68
2021/09/05 21:23:51;;;;;;;1.50;1.50;;;;;;;6.92;82.29;100452.69;5056092;28;20044;-68
2021/09/05 21:26:17;;;;;;;2.10;2.00;;;;;;;6.90;82.58;100450.16;5092382;28;20043;-68
2021/09/05 21:28:42;;;;;;;2.03;1.92;;;;;;;6.90;81.94;100444.97;5092051;28;20101;-68
2021/09/05 21:31:08;;;;;;;1.30;1.30;;;;;;;6.94;81.91;100446.56;5073125;28;20048;-68
2021/09/05 21:33:34;;;;;;;1.58;1.58;;;;;;;6.94;81.79;100450.91;5091457;28;20073;-69
2021/09/05 21:36:00;;;;;;;4.95;2.53;;;;;;;6.91;81.68;100446.66;5092495;28;20048;-67
2021/09/05 21:38:26;;;;;;;1.63;1.63;;;;;;;6.92;82.39;100452.69;5092474;28;20146;-68
2021/09/05 21:40:52;;;;;;;1.55;1.55;;;;;;;6.92;81.56;100448.38;5092311;28;20048;-69
2021/09/05 21:43:19;;;;;;;1.85;1.75;;;;;;;6.93;82.00;100452.66;5091978;28;20700;-68
2021/09/05 21:45:45;;;;;;;1.88;1.80;;;;;;;6.93;81.19;100449.22;5091777;28;20055;-68
2021/09/05 21:48:12;;;;;;;2.20;2.05;;;;;;;6.98;81.92;100453.38;5091026;28;20047;-68
2021/09/05 21:50:38;;;;;;;8.68;4.05;;;;;;;6.93;82.48;100457.88;5090343;28;20044;-68
2021/09/05 21:53:04;;;;;;;1.73;1.73;;;;;;;6.88;81.76;100451.94;5073885;28;20056;-69
2021/09/05 21:55:31;;;;;;;1.65;1.20;;;;;;;6.83;81.92;100451.25;5091517;28;20177;-69
2021/09/05 21:57:56;;;;;;;2.17;2.08;;;;;;;6.80;82.25;100454.78;5073932;28;20137;-69
2021/09/05 22:00:23;;;;;;;2.40;2.00;;;;;;;6.79;82.39;100454.81;5073585;28;20044;-68
2021/09/05 22:02:48;;;;;;;2.20;2.10;;;;;;;6.77;82.58;100454.84;5073512;28;20420;-69
2021/09/05 22:05:14;;;;;;;1.77;1.67;;;;;;;6.77;82.84;100454.03;5091424;28;20043;-69
2021/09/05 22:07:41;;;;;;;1.70;1.70;;;;;;;6.83;82.07;100459.03;5091211;28;20044;-68
2021/09/05 22:10:08;;;;;;;1.67;1.67;;;;;;;6.89;81.26;100461.44;5091526;28;20050;-69
2021/09/05 22:12:34;;;;;;;2.95;2.70;;;;;;;6.90;81.01;100463.16;5073200;28;20048;-68
2021/09/05 22:15:00;;;;;;;1.85;1.75;;;;;;;6.90;81.09;100454.50;5091478;28;20109;-68
2021/09/05 22:17:25;;;;;;;5.03;1.65;;;;;;;6.87;81.56;100462.38;5072025;28;20044;-71
2021/09/05 22:19:51;;;;;;;1.58;1.58;;;;;;;6.80;81.93;100452.19;5090687;28;20044;-69
2021/09/05 22:22:17;;;;;;;3.08;2.70;;;;;;;6.89;80.98;100452.78;5091096;28;20109;-68
2021/09/05 22:24:43;;;;;;;1.75;1.65;;;;;;;7.03;80.70;100461.03;5090957;28;20125;-68
2021/09/05 22:27:09;;;;;;;2.53;2.35;;;;;;;7.06;79.98;100455.75;5073062;28;20096;-70
2021/09/05 22:29:36;;;;;;;1.17;1.17;;;;;;;7.14;79.98;100464.97;5090682;28;20044;-70
2021/09/05 22:32:04;;;;;;;0.80;0.80;;;;;;;7.22;78.83;100462.16;5091128;28;20071;-69
2021/09/05 22:34:32;;;;;;;1.17;1.13;;;;;;;7.23;78.88;100462.09;5072935;28;20036;-68
2021/09/05 22:36:58;;;;;;;0.80;0.80;;;;;;;7.25;79.14;100467.25;5072703;28;20044;-70
2021/09/05 22:39:24;;;;;;;3.55;1.48;;;;;;;7.21;79.54;100463.88;5091063;28;20459;-70
2021/09/05 22:41:50;;;;;;;6.22;1.10;;;;;;;7.15;80.00;100466.69;5090456;28;20147;-69
2021/09/05 22:44:16;;;;;;;1.08;1.08;;;;;;;7.13;79.65;100458.06;5090963;28;20056;-69
2021/09/05 22:46:42;;;;;;;1.25;1.25;;;;;;;7.15;79.03;100464.09;5072582;28;20040;-70
2021/09/05 22:49:08;;;;;;;0.90;0.90;;;;;;;7.15;79.09;100471.88;5090822;28;20113;-70
2021/09/05 22:51:34;;;;;;;1.65;1.55;;;;;;;7.09;79.49;100466.88;5072278;28;20056;-71
2021/09/05 22:54:00;;;;;;;1.50;1.50;;;;;;;7.07;79.35;100473.84;5090801;28;20044;-70
2021/09/05 22:56:26;;;;;;;1.75;1.73;;;;;;;7.05;79.80;100480.84;5089450;28;20048;-70
2021/09/05 22:58:52;;;;;;;0.88;0.88;;;;;;;7.00;79.85;100482.72;5090364;28;20056;-70
2021/09/05 23:01:18;;;;;;;1.35;1.35;;;;;;;7.03;80.85;100479.19;5090521;28;20044;-70
2021/09/05 23:03:44;;;;;;;1.15;1.15;;;;;;;6.95;80.75;100478.56;5089297;28;20424;-70
2021/09/05 23:06:09;;;;;;;0.98;0.98;;;;;;;6.95;80.63;100482.00;5090653;28;20048;-70
2021/09/05 23:08:35;;;;;;;2.00;1.65;;;;;;;6.93;79.83;100481.22;5071859;28;20058;-68
2021/09/05 23:11:02;;;;;;;1.85;1.75;;;;;;;6.92;79.77;100479.50;5072258;28;20048;-70
2021/09/05 23:13:28;;;;;;;0.85;0.85;;;;;;;6.87;80.69;100484.00;5090255;28;20516;-69
2021/09/05 23:15:53;;;;;;;1.92;1.88;;;;;;;6.81;80.51;100482.41;5072188;28;20106;-70
2021/09/05 23:18:19;;;;;;;9.77;2.08;;;;;;;6.75;79.91;100473.97;5090315;28;20528;-69
2021/09/05 23:20:45;;;;;;;1.15;1.15;;;;;;;6.77;80.47;100485.16;5071791;28;20093;-71
2021/09/05 23:23:11;;;;;;;1.98;1.88;;;;;;;6.73;80.29;100479.22;5090309;28;20056;-71
2021/09/05 23:25:37;;;;;;;1.35;1.35;;;;;;;6.71;80.14;100485.31;5055036;28;20495;-71
2021/09/05 23:28:03;;;;;;;1.08;1.05;;;;;;;6.70;80.36;100481.03;5090036;28;20184;-72
2021/09/05 23:30:30;;;;;;;5.57;1.35;;;;;;;6.59;80.65;100470.13;5089873;28;20050;-72
2021/09/05 23:32:56;;;;;;;1.45;1.45;;;;;;;6.62;80.64;100481.25;5072019;28;20052;-71
2021/09/05 23:35:22;;;;;;;1.15;1.15;;;;;;;6.63;79.95;100493.34;5089893;28;20080;-72
2021/09/05 23:37:47;;;;;;;1.15;1.15;;;;;;;6.59;80.27;100480.50;5089781;28;20082;-71
2021/09/05 23:40:13;;;;;;;1.33;1.33;;;;;;;6.50;80.39;100483.34;5089946;28;20051;-73
2021/09/05 23:42:39;;;;;;;1.50;1.50;;;;;;;6.47;80.27;100483.44;5067668;28;20102;-73
2021/09/05 23:45:06;;;;;;;3.78;2.03;;;;;;;6.50;80.47;100488.53;5068493;28;20091;-72
2021/09/05 23:47:32;;;;;;;1.33;1.33;;;;;;;6.44;80.79;100491.31;5084890;28;20612;-74
2021/09/05 23:49:58;;;;;;;1.42;1.42;;;;;;;6.38;80.79;100488.88;5069596;28;20138;-72
2021/09/05 23:52:24;;;;;;;1.92;1.35;;;;;;;6.34;81.04;100489.84;5069460;28;20052;-72
2021/09/05 23:54:50;;;;;;;1.15;1.15;;;;;;;6.26;80.60;100483.13;5051405;28;20501;-72
2021/09/05 23:57:16;;;;;;;1.25;1.25;;;;;;;6.25;81.20;100478.84;5068168;28;20078;-73
2021/09/05 23:59:42;;;;;;;1.23;1.17;;;;;;;6.24;81.87;100478.88;5068121;28;20064;-71
